Latest Weather Observations for Norah Head

IDN60901

Issued at 7:45 am EDT Saturday 25 October 2014 (issued every 10 minutes, with the page automatically refreshed every 10 minutes)

About weather observations | Map of Sydney area stations | Latest observations for Sydney area | Other Formats
Station Details ID: 061366 Name: NORAH HEAD AWS Lat: -33.28 Lon: 151.58 Height: 18.8 m
Data from the previous 72 hours. | See also: Recent months at Norah Head
Date/Time
EDT
Tmp

°C
App
Tmp
°C
Dew
Point
°C
Rel
Hum
%
Delta-T

°C
Wind Press
QNH
hPa
Press
MSL
hPa
Rain
since
9 am
mm
Dir
 
Spd
km/h
Gust
km/h
Spd
kts
Gust
kts
25/07:30am 19.7 21.6 18.5 93 0.7 SSW 6 9 3 5 1014.6 1014.5 0.2
25/07:00am 19.2 20.8 18.2 94 0.6 S 7 9 4 5 1014.1 1014.0 0.2
25/06:30am 18.6 20.0 17.8 95 0.5 SSW 7 9 4 5 1013.5 1013.4 0.2
25/06:00am 18.6 21.2 17.6 94 0.6 SSW 0 0 0 0 1013.0 1012.9 0.2
25/05:30am 18.6 21.2 17.6 94 0.6 CALM 0 0 0 0 1012.6 1012.5 0.2
25/05:00am 18.6 20.0 17.4 93 0.7 SSW 6 7 3 4 1012.4 1012.3 0.2
25/04:30am 18.8 20.9 17.3 91 0.9 SE 2 7 1 4 1012.1 1012.0 0.0
25/04:00am 19.2 21.0 17.3 89 1.2 SE 4 6 2 3 1011.9 1011.8 0.0
25/03:30am 19.3 21.4 17.3 88 1.2 ESE 2 6 1 3 1012.1 1012.0 0.0
25/03:00am 19.7 21.8 17.1 85 1.6 ESE 2 4 1 2 1011.8 1011.7 0.0
25/02:30am 19.9 22.4 17.3 85 1.6 CALM 0 4 0 2 1011.7 1011.6 0.0
25/02:00am 20.1 22.2 17.3 84 1.7 NNW 2 6 1 3 1011.7 1011.6 0.0
25/01:30am 20.3 20.3 18.1 87 1.4 NNW 15 19 8 10 1011.5 1011.4 0.0
25/01:00am 19.6 20.2 17.7 89 1.2 NW 11 13 6 7 1011.6 1011.5 0.0
25/12:30am 19.8 18.5 18.1 90 1.1 N 22 26 12 14 1011.6 1011.5 0.0
25/12:00am 19.4 18.1 18.1 92 0.8 N 22 26 12 14 1011.8 1011.7 0.0
 
Date/Time
EDT
Tmp

°C
App
Tmp
°C
Dew
Point
°C
Rel
Hum
%
Delta-T

°C
Wind Press
QNH
hPa
Press
MSL
hPa
Rain
since
9 am
mm
Dir
 
Spd
km/h
Gust
km/h
Spd
kts
Gust
kts
24/11:30pm 19.7 15.9 18.0 90 1.0 N 35 39 19 21 1011.9 1011.8 0.0
24/11:00pm 19.8 15.7 18.3 91 0.9 NNE 37 41 20 22 1012.0 1011.9 0.0
24/10:52pm 19.8 17.3 18.1 90 1.1 NNE 28 37 15 20 1012.5 1012.4 0.0
24/10:30pm 20.4 22.9 18.2 87 1.4 NNW 2 9 1 5 1014.5 1014.4 0.0
24/10:12pm 19.7 19.3 18.0 90 1.0 WNW 17 26 9 14 1015.3 1015.2 0.0
24/10:00pm 19.5 16.2 18.0 91 0.9 N 32 35 17 19 1013.0 1012.9 0.0
24/09:30pm 19.5 17.0 18.0 91 0.9 N 28 33 15 18 1013.1 1013.0 0.0
24/09:00pm 19.6 16.3 17.9 90 1.0 NNE 32 39 17 21 1013.2 1013.1 0.0
24/08:30pm 19.8 15.5 17.9 89 1.2 NNE 37 43 20 23 1013.2 1013.1 0.0
24/08:00pm 19.9 15.3 17.9 88 1.2 NNE 39 44 21 24 1012.9 1012.8 0.0
24/07:30pm 20.0 14.9 17.8 87 1.4 NNE 41 48 22 26 1012.9 1012.8 0.0
24/07:00pm 20.1 15.8 17.9 87 1.4 NNE 37 43 20 23 1013.0 1012.9 0.0
24/06:30pm 20.1 15.9 18.1 88 1.2 NNE 37 43 20 23 1013.0 1012.9 0.0
24/06:00pm 20.2 16.7 18.0 87 1.4 NNE 33 41 18 22 1013.1 1013.0 0.0
24/05:30pm 20.3 17.1 18.1 87 1.4 NNE 32 37 17 20 1013.3 1013.2 0.0
24/05:00pm 20.3 17.5 18.1 87 1.4 NNE 30 35 16 19 1013.7 1013.6 0.0
24/04:30pm 20.3 17.9 18.2 88 1.3 NNE 28 32 15 17 1014.2 1014.1 0.0
24/04:00pm 20.6 18.1 18.0 85 1.6 NNE 28 32 15 17 1014.6 1014.5 0.0
24/03:30pm 20.9 18.1 18.3 85 1.6 NNE 30 33 16 18 1015.0 1014.9 0.0
24/03:00pm 20.6 17.4 18.2 86 1.5 NNE 32 35 17 19 1015.5 1015.4 0.0
24/02:30pm 21.1 18.7 18.3 84 1.7 NNE 28 32 15 17 1016.2 1016.1 0.0
24/02:00pm 21.5 19.6 18.5 83 1.9 NNE 26 30 14 16 1016.8 1016.7 0.0
24/01:30pm 21.9 20.8 18.7 82 2.0 NNE 22 26 12 14 1017.4 1017.3 0.0
24/01:00pm 21.9 20.5 17.9 78 2.5 NE 22 28 12 15 1017.8 1017.7 0.0
24/12:30pm 21.9 21.7 18.5 81 2.1 E 17 19 9 10 1018.7 1018.6 0.0
24/12:00pm 20.4 19.0 18.0 86 1.5 NNE 22 28 12 15 1018.9 1018.8 0.0
24/11:30am 20.5 20.1 18.1 86 1.5 NE 17 20 9 11 1019.4 1019.3 0.0
24/11:00am 21.1 22.6 16.7 76 2.7 NNE 4 6 2 3 1020.2 1020.1 0.0
24/10:30am 24.2 26.6 20.1 78 2.7 NE 7 9 4 5 1019.6 1019.5 0.0
24/10:00am 22.2 24.5 18.6 80 2.3 NNW 4 7 2 4 1020.2 1020.1 0.0
24/09:30am 20.7 23.1 17.9 84 1.7 NW 2 9 1 5 1020.5 1020.4 0.0
24/09:00am 19.6 20.9 17.6 88 1.2 WNW 7 13 4 7 1020.0 1019.9 0.0
24/08:30am 19.9 21.7 18.7 93 0.7 NW 7 11 4 6 1019.7 1019.6 0.0
24/08:00am 19.3 19.5 18.5 95 0.5 S 15 19 8 10 1019.7 1019.6 0.0
24/07:30am 18.7 21.0 17.7 94 0.6 N 2 9 1 5 1019.8 1019.7 0.0
24/07:00am 18.4 20.2 17.4 94 0.6 S 4 11 2 6 1019.9 1019.8 0.0
24/06:30am 18.2 19.9 17.2 94 0.6 WNW 4 9 2 5 1019.8 1019.7 0.0
24/06:00am 18.2 19.6 17.4 95 0.5 W 6 9 3 5 1019.9 1019.8 0.0
24/05:30am 18.6 19.2 17.8 95 0.5 WSW 11 19 6 10 1020.1 1020.0 0.0
24/05:00am 18.9 19.7 18.2 96 0.4 SW 11 17 6 9 1020.2 1020.1 0.0
24/04:30am 18.8 20.5 18.1 96 0.4 SSW 6 7 3 4 1019.6 1019.5 0.0
24/04:00am 18.7 20.4 18.0 96 0.4 SSW 6 7 3 4 1019.0 1018.9 0.0
24/03:30am 18.8 19.9 18.1 96 0.4 SSE 9 11 5 6 1018.4 1018.3 0.0
24/03:00am 19.1 19.3 18.6 97 0.3 S 15 19 8 10 1018.9 1018.8 0.0
24/02:30am 19.1 18.9 18.6 97 0.3 S 17 20 9 11 1019.3 1019.2 0.0
24/02:00am 19.1 19.6 18.4 96 0.4 S 13 17 7 9 1019.6 1019.5 0.0
24/01:30am 19.0 20.2 18.3 96 0.4 S 9 13 5 7 1019.6 1019.5 0.0
24/01:00am 18.9 20.1 18.2 96 0.4 SSW 9 13 5 7 1019.8 1019.7 0.0
24/12:30am 18.7 20.7 17.9 95 0.5 S 4 4 2 2 1019.8 1019.7 0.0
24/12:00am 18.4 21.0 17.6 95 0.5 CALM 0 0 0 0 1019.9 1019.8 0.0
 
Date/Time
EDT
Tmp

°C
App
Tmp
°C
Dew
Point
°C
Rel
Hum
%
Delta-T

°C
Wind Press
QNH
hPa
Press
MSL
hPa
Rain
since
9 am
mm
Dir
 
Spd
km/h
Gust
km/h
Spd
kts
Gust
kts
23/11:30pm 18.9 21.0 18.1 95 0.5 WNW 4 9 2 5 1020.0 1019.9 0.0
23/11:00pm 18.8 20.3 18.0 95 0.5 ENE 7 9 4 5 1019.8 1019.7 0.0
23/10:30pm 19.0 20.2 18.3 96 0.4 SE 9 11 5 6 1019.6 1019.5 0.0
23/10:00pm 19.1 20.9 18.4 96 0.4 S 6 7 3 4 1019.7 1019.6 0.0
23/09:30pm 19.3 21.0 18.5 95 0.5 SW 7 9 4 5 1019.7 1019.6 0.0
23/09:00pm 19.3 20.9 18.3 94 0.6 SW 7 9 4 5 1019.4 1019.3 0.0
23/08:30pm 19.5 22.4 18.2 92 0.8 CALM 0 0 0 0 1019.0 1018.9 0.0
23/08:00pm 19.8 22.4 18.5 92 0.8 E 2 4 1 2 1018.5 1018.4 0.0
23/07:30pm 19.9 23.0 18.6 92 0.8 CALM 0 4 0 2 1018.4 1018.3 0.0
23/07:00pm 20.0 22.6 18.5 91 0.9 S 2 6 1 3 1017.8 1017.7 0.0
23/06:30pm 20.1 21.9 18.2 89 1.2 SSW 6 7 3 4 1017.6 1017.5 0.0
23/06:00pm 20.9 22.7 18.3 85 1.6 SSE 6 7 3 4 1017.0 1016.9 0.0
23/05:30pm 21.2 23.3 18.0 82 2.0 E 4 6 2 3 1016.5 1016.4 0.0
23/05:00pm 21.1 22.9 18.3 84 1.7 NNE 6 7 3 4 1016.4 1016.3 0.0
23/04:30pm 21.9 22.9 17.7 77 2.6 NE 9 13 5 7 1016.2 1016.1 0.0
23/04:00pm 22.2 23.9 18.4 79 2.4 ENE 7 11 4 6 1015.9 1015.8 0.0
23/03:30pm 22.4 24.0 18.2 77 2.6 ENE 7 13 4 7 1015.9 1015.8 0.0
23/03:00pm 22.1 22.5 18.1 78 2.5 E 13 17 7 9 1015.8 1015.7 0.0
23/02:30pm 22.4 23.1 18.0 76 2.7 E 11 13 6 7 1016.1 1016.0 0.0
23/02:00pm 22.9 23.9 17.8 73 3.2 ENE 9 13 5 7 1016.5 1016.4 0.0
23/01:30pm 24.4 25.9 18.8 71 3.6 NE 9 13 5 7 1016.7 1016.6 0.0
23/01:00pm 23.1 23.9 17.3 70 3.6 NE 9 11 5 6 1016.9 1016.8 0.0
23/12:30pm 24.1 24.7 17.8 68 3.9 NE 11 13 6 7 1017.0 1016.9 0.0
23/12:00pm 23.8 24.8 17.8 69 3.7 NE 9 11 5 6 1017.3 1017.2 0.0
23/11:30am 22.8 23.7 16.6 68 3.8 NE 7 9 4 5 1017.7 1017.6 0.0
23/11:00am 23.1 23.5 17.3 70 3.6 NE 11 13 6 7 1017.9 1017.8 0.0
23/10:30am 21.8 22.2 17.2 75 2.8 NE 11 13 6 7 1018.0 1017.9 0.0
23/10:00am 20.9 21.4 16.5 76 2.7 NE 9 11 5 6 1018.0 1017.9 0.0
23/09:30am 19.9 20.2 15.1 74 2.8 NNE 7 9 4 5 1018.1 1018.0 0.0
23/09:00am 19.8 20.4 15.4 76 2.6 N 6 7 3 4 1018.3 1018.2 0.0
23/08:30am 18.7 19.3 15.4 81 1.9 N 6 7 3 4 1018.5 1018.4 0.0
23/08:00am 17.2 17.6 14.8 86 1.4 NNW 6 7 3 4 1018.3 1018.2 0.0
23/07:30am 16.1 16.5 14.8 92 0.7 NW 6 7 3 4 1018.3 1018.2 0.0
23/07:00am 15.7 15.5 14.6 93 0.6 N 9 13 5 7 1017.9 1017.8 0.0
23/06:30am 15.0 15.1 13.9 93 0.6 N 6 9 3 5 1017.9 1017.8 0.0
23/06:00am 14.7 15.4 13.4 92 0.7 NNW 2 4 1 2 1018.0 1017.9 0.0
23/05:30am 14.8 15.9 13.5 92 0.7 CALM 0 0 0 0 1018.0 1017.9 0.0
23/05:00am 14.5 15.4 12.9 90 0.9 CALM 0 0 0 0 1017.8 1017.7 0.0
23/04:30am 14.8 15.8 13.2 90 0.9 CALM 0 0 0 0 1017.9 1017.8 0.0
23/04:00am 14.9 14.7 13.1 89 1.0 WNW 6 6 3 3 1017.7 1017.6 0.0
23/03:30am 15.5 15.0 13.7 89 1.0 NNW 9 11 5 6 1017.8 1017.7 0.0
23/03:00am 16.1 15.3 13.9 87 1.2 NNW 11 13 6 7 1018.2 1018.1 0.0
23/02:30am 16.3 14.8 14.1 87 1.2 N 15 19 8 10 1018.4 1018.3 0.0
23/02:00am 16.5 15.1 14.5 88 1.1 N 15 17 8 9 1018.7 1018.6 0.0
23/01:30am 16.6 15.2 14.6 88 1.1 N 15 19 8 10 1019.0 1018.9 0.0
23/01:00am 16.6 15.2 14.4 87 1.3 N 15 17 8 9 1019.5 1019.4 0.0
23/12:30am 16.9 14.7 14.5 86 1.4 N 19 24 10 13 1019.6 1019.5 0.0
23/12:00am 17.4 14.1 15.0 86 1.4 NNE 26 30 14 16 1019.8 1019.7 0.0
 
Date/Time
EDT
Tmp

°C
App
Tmp
°C
Dew
Point
°C
Rel
Hum
%
Delta-T

°C
Wind Press
QNH
hPa
Press
MSL
hPa
Rain
since
9 am
mm
Dir
 
Spd
km/h
Gust
km/h
Spd
kts
Gust
kts
22/11:30pm 17.5 13.8 15.0 85 1.5 NNE 28 32 15 17 1020.0 1019.9 0.0
22/11:00pm 17.7 13.7 15.1 85 1.5 NNE 30 37 16 20 1020.1 1020.0 0.0
22/10:30pm 17.9 12.9 15.0 83 1.7 NNE 35 43 19 23 1020.2 1020.1 0.0
22/10:00pm 18.1 13.5 15.2 83 1.7 NNE 33 39 18 21 1020.5 1020.4 0.0
22/09:30pm 18.3 13.2 14.8 80 2.0 NNE 35 41 19 22 1020.4 1020.3 0.0
22/09:00pm 18.4 13.6 15.5 83 1.7 NNE 35 41 19 22 1020.4 1020.3 0.0
22/08:30pm 18.5 13.2 15.2 81 1.9 NNE 37 43 20 23 1020.3 1020.2 0.0
22/08:00pm 18.5 13.4 14.8 79 2.1 NNE 35 43 19 23 1020.1 1020.0 0.0
22/07:30pm 18.6 13.8 14.7 78 2.3 NNE 33 41 18 22 1020.1 1020.0 0.0
22/07:00pm 18.6 13.7 14.3 76 2.5 NNE 33 41 18 22 1020.1 1020.0 0.0
22/06:30pm 18.7 13.7 14.0 74 2.7 NNE 33 39 18 21 1020.2 1020.1 0.0
22/06:00pm 18.8 13.9 13.6 72 3.0 NNE 32 39 17 21 1020.4 1020.3 0.0
22/05:30pm 19.1 14.3 13.9 72 3.0 NNE 32 37 17 20 1020.7 1020.6 0.0
22/05:00pm 19.1 14.6 13.7 71 3.1 NNE 30 37 16 20 1020.9 1020.8 0.0
22/04:30pm 19.4 14.5 13.6 69 3.3 NE 32 37 17 20 1021.1 1021.0 0.0
22/04:00pm 19.3 14.5 13.0 67 3.5 NE 30 33 16 18 1021.5 1021.4 0.0
22/03:30pm 20.0 15.8 13.5 66 3.7 NE 28 32 15 17 1022.0 1021.9 0.0
22/03:00pm 20.7 17.1 13.2 62 4.3 NE 24 28 13 15 1022.6 1022.5 0.0
22/02:30pm 22.3 19.8 14.2 60 4.7 NE 20 24 11 13 1023.1 1023.0 0.0
22/02:00pm 21.4 18.9 14.1 63 4.2 ENE 20 22 11 12 1023.7 1023.6 0.0
22/01:30pm 21.4 19.2 14.3 64 4.1 ENE 19 22 10 12 1024.1 1024.0 0.0
22/01:00pm 22.3 20.5 15.4 65 4.1 ENE 19 20 10 11 1024.8 1024.7 0.0
22/12:30pm 22.8 21.6 15.1 62 4.6 NE 15 17 8 9 1025.3 1025.2 0.0
22/12:00pm 22.7 21.4 15.8 65 4.1 NE 17 20 9 11 1025.7 1025.6 0.0
22/11:30am 19.9 17.4 13.6 67 3.6 NNE 19 22 10 12 1026.2 1026.1 0.0
22/11:00am 20.2 18.2 13.9 67 3.6 NNE 17 19 9 10 1026.5 1026.4 0.0
22/10:30am 20.9 19.2 14.8 68 3.6 NE 17 19 9 10 1026.8 1026.7 0.0
22/10:00am 20.0 20.1 13.9 68 3.5 NNE 6 9 3 5 1027.1 1027.0 0.0
22/09:30am 18.8 19.3 14.1 74 2.7 N 4 6 2 3 1027.3 1027.2 0.0
22/09:00am 17.0 16.5 12.1 73 2.7 N 6 9 3 5 1027.3 1027.2 0.0
22/08:30am 17.0 16.6 12.5 75 2.5 NNW 6 7 3 4 1027.4 1027.3 0.0
22/08:00am 16.1 16.9 12.5 79 2.0 CALM 0 6 0 3 1027.4 1027.3 0.0

Latest Capital City Observations: Canberra | Sydney | Melbourne | Brisbane | Adelaide | Perth | Hobart | Darwin

Other Formats:

Comma delimited format used in spreadsheet applications
http://www.bom.gov.au/fwo/IDN60901/IDN60901.95770.axf

JavaScript Object Notation format (JSON) in row-major order
http://www.bom.gov.au/fwo/IDN60901/IDN60901.95770.json